createdAt,value
2023-05-05T00:02:26.458Z,7.18
2023-05-05T00:04:53.063Z,8.77
2023-05-05T00:07:19.781Z,6.38
2023-05-05T00:09:46.239Z,7.27
2023-05-05T00:12:12.718Z,9.30
2023-05-05T00:14:39.124Z,8.77
2023-05-05T00:17:05.604Z,7.13
2023-05-05T00:19:32.262Z,8.63
2023-05-05T00:21:58.884Z,7.27
2023-05-05T00:24:25.364Z,6.05
2023-05-05T00:26:51.842Z,7.35
2023-05-05T00:29:18.342Z,5.53
2023-05-05T00:31:44.896Z,6.95
2023-05-05T00:34:11.623Z,7.60
2023-05-05T00:36:38.074Z,7.40
2023-05-05T00:39:04.532Z,6.43
2023-05-05T00:41:31.570Z,7.93
2023-05-05T00:43:58.075Z,5.93
2023-05-05T00:46:28.040Z,6.60
2023-05-05T00:48:55.908Z,7.90
2023-05-05T00:51:24.327Z,8.13
2023-05-05T00:53:51.187Z,5.85
2023-05-05T00:56:19.565Z,6.47
2023-05-05T00:58:46.890Z,12.87
2023-05-05T01:01:14.110Z,7.30
2023-05-05T01:03:41.597Z,11.38
2023-05-05T01:06:45.482Z,6.80
2023-05-05T01:09:38.948Z,6.63
2023-05-05T01:12:14.511Z,7.33
2023-05-05T01:14:47.195Z,6.45
2023-05-05T01:17:17.313Z,7.88
2023-05-05T01:20:09.402Z,7.45
2023-05-05T01:22:45.652Z,7.82
2023-05-05T01:25:39.272Z,6.73
2023-05-05T01:28:17.666Z,8.10
2023-05-05T01:30:53.020Z,7.40
2023-05-05T01:33:26.152Z,6.93
2023-05-05T01:35:59.179Z,6.10
2023-05-05T01:38:40.489Z,7.17
2023-05-05T01:41:18.149Z,6.93
2023-05-05T01:43:48.393Z,7.65
2023-05-05T01:46:16.117Z,9.07
2023-05-05T01:48:44.087Z,7.47
2023-05-05T01:51:12.471Z,8.10
2023-05-05T01:53:39.582Z,5.78
2023-05-05T01:56:08.267Z,6.72
2023-05-05T01:58:36.336Z,6.95
2023-05-05T02:01:04.131Z,6.03
2023-05-05T02:03:34.062Z,7.60
2023-05-05T02:06:01.552Z,7.78
2023-05-05T02:08:29.992Z,7.68
2023-05-05T02:10:57.557Z,9.25
2023-05-05T02:13:25.991Z,8.82
2023-05-05T02:15:53.578Z,7.60
2023-05-05T02:18:22.088Z,11.45
2023-05-05T02:20:48.878Z,8.57
2023-05-05T02:23:15.469Z,7.20
2023-05-05T02:25:45.992Z,6.70
2023-05-05T02:28:23.007Z,6.80
2023-05-05T02:30:57.558Z,6.40
2023-05-05T02:33:26.084Z,9.40
2023-05-05T02:35:55.284Z,8.35
2023-05-05T02:38:26.483Z,6.55
2023-05-05T02:40:56.705Z,7.27
2023-05-05T02:43:25.545Z,6.65
2023-05-05T02:45:52.206Z,6.93
2023-05-05T02:48:18.638Z,6.97
2023-05-05T02:50:45.188Z,7.22
2023-05-05T02:53:11.988Z,6.77
2023-05-05T02:55:52.974Z,5.70
2023-05-05T02:58:37.323Z,5.90
2023-05-05T03:01:24.833Z,7.32
2023-05-05T03:04:07.742Z,7.57
2023-05-05T03:06:40.864Z,4.50
2023-05-05T03:09:16.033Z,6.75
2023-05-05T03:12:03.697Z,5.95
2023-05-05T03:14:36.890Z,5.15
2023-05-05T03:17:04.130Z,3.63
2023-05-05T03:19:32.115Z,5.63
2023-05-05T03:21:59.625Z,4.35
2023-05-05T03:24:26.072Z,4.53
2023-05-05T03:26:53.426Z,5.03
2023-05-05T03:29:20.056Z,5.25
2023-05-05T03:31:46.849Z,5.63
2023-05-05T03:34:13.631Z,5.78
2023-05-05T03:36:40.638Z,4.43
2023-05-05T03:39:07.396Z,5.70
2023-05-05T03:41:34.008Z,6.82
2023-05-05T03:44:00.673Z,4.73
2023-05-05T03:46:27.374Z,6.10
2023-05-05T03:48:57.130Z,4.88
2023-05-05T03:51:25.284Z,6.05
2023-05-05T03:53:51.815Z,4.07
2023-05-05T03:56:18.277Z,5.17
2023-05-05T03:58:44.748Z,5.40
2023-05-05T04:01:11.709Z,7.00
2023-05-05T04:03:39.265Z,4.72
2023-05-05T04:06:06.113Z,5.10
2023-05-05T04:08:32.681Z,5.53
2023-05-05T04:10:59.336Z,5.13
2023-05-05T04:13:25.917Z,5.55
2023-05-05T04:15:52.483Z,7.55
2023-05-05T04:18:19.057Z,6.47
2023-05-05T04:20:45.639Z,5.80
2023-05-05T04:23:12.224Z,5.00
2023-05-05T04:25:38.859Z,5.03
2023-05-05T04:28:05.367Z,6.85
2023-05-05T04:30:31.826Z,6.55
2023-05-05T04:32:58.374Z,6.23
2023-05-05T04:35:24.873Z,5.20
2023-05-05T04:37:53.406Z,6.60
2023-05-05T04:40:19.861Z,6.63
2023-05-05T04:42:46.298Z,7.22
2023-05-05T04:45:13.126Z,4.83
2023-05-05T04:47:40.632Z,5.75
2023-05-05T04:50:08.418Z,5.93
2023-05-05T04:52:35.608Z,5.88
2023-05-05T04:55:02.391Z,6.38
2023-05-05T04:57:30.682Z,6.67
2023-05-05T04:59:57.310Z,5.93
2023-05-05T05:02:23.822Z,5.13
2023-05-05T05:04:50.350Z,4.70
2023-05-05T05:07:16.828Z,5.85
2023-05-05T05:09:43.326Z,4.53
2023-05-05T05:12:09.965Z,6.72
2023-05-05T05:14:40.051Z,4.55
2023-05-05T05:17:06.934Z,5.38
2023-05-05T05:19:33.483Z,5.63
2023-05-05T05:22:00.014Z,6.00
2023-05-05T05:24:26.470Z,6.13
2023-05-05T05:26:53.131Z,6.20
2023-05-05T05:29:20.438Z,7.18
2023-05-05T05:31:47.193Z,7.18
2023-05-05T05:34:13.666Z,7.50
2023-05-05T05:36:40.186Z,6.43
2023-05-05T05:39:06.743Z,7.43
2023-05-05T05:41:33.341Z,7.55
2023-05-05T05:43:59.850Z,6.82
2023-05-05T05:46:26.412Z,7.33
2023-05-05T05:48:53.083Z,7.78
2023-05-05T05:51:19.595Z,7.18
2023-05-05T05:53:46.458Z,6.70
2023-05-05T05:56:12.939Z,7.35
2023-05-05T05:58:39.444Z,9.77
2023-05-05T06:01:06.008Z,6.78
2023-05-05T06:03:32.618Z,9.38
2023-05-05T06:05:59.274Z,7.57
2023-05-05T06:08:26.851Z,8.25
2023-05-05T06:10:53.449Z,7.87
2023-05-05T06:13:19.933Z,6.63
2023-05-05T06:15:46.474Z,6.95
2023-05-05T06:18:13.042Z,7.57
2023-05-05T06:20:39.925Z,6.50
2023-05-05T06:23:06.811Z,10.97
2023-05-05T06:25:33.423Z,6.72
2023-05-05T06:28:00.105Z,7.68
2023-05-05T06:30:26.819Z,5.95
2023-05-05T06:32:54.331Z,6.55
2023-05-05T06:35:22.326Z,6.87
2023-05-05T06:37:48.834Z,7.28
2023-05-05T06:40:15.335Z,5.32
2023-05-05T06:42:41.855Z,7.28
2023-05-05T06:45:08.886Z,7.45
2023-05-05T06:47:36.042Z,5.40
2023-05-05T06:50:02.534Z,5.35
2023-05-05T06:52:29.058Z,7.32
2023-05-05T06:54:55.679Z,4.80
2023-05-05T06:57:22.149Z,7.93
2023-05-05T06:59:48.633Z,4.90
2023-05-05T07:02:15.190Z,5.57
2023-05-05T07:04:42.833Z,5.57
2023-05-05T07:07:09.302Z,5.82
2023-05-05T07:09:35.908Z,6.97
2023-05-05T07:12:03.591Z,7.33
2023-05-05T07:14:30.675Z,6.95
2023-05-05T07:16:57.264Z,6.32
2023-05-05T07:19:23.951Z,6.05
2023-05-05T07:21:50.485Z,5.45
2023-05-05T07:24:16.983Z,4.87
2023-05-05T07:26:43.603Z,5.78
2023-05-05T07:29:10.270Z,6.18
2023-05-05T07:31:38.748Z,5.00
2023-05-05T07:34:05.293Z,4.82
2023-05-05T07:36:32.318Z,6.70
2023-05-05T07:38:59.077Z,4.00
2023-05-05T07:41:25.815Z,5.35
2023-05-05T07:43:52.594Z,6.50
2023-05-05T07:46:19.313Z,5.47
2023-05-05T07:48:46.294Z,7.40
2023-05-05T07:51:13.019Z,5.40
2023-05-05T07:53:41.539Z,5.53
2023-05-05T07:56:08.938Z,4.90
2023-05-05T07:58:35.620Z,3.28
2023-05-05T08:01:02.792Z,4.87
2023-05-05T08:03:29.430Z,3.60
2023-05-05T08:05:56.504Z,3.90
2023-05-05T08:08:24.965Z,4.18
2023-05-05T08:10:52.958Z,5.13
2023-05-05T08:13:19.555Z,3.23
2023-05-05T08:15:46.303Z,5.68
2023-05-05T08:18:13.112Z,5.53
2023-05-05T08:20:39.590Z,2.92
2023-05-05T08:23:06.700Z,4.78
2023-05-05T08:25:33.261Z,4.27
2023-05-05T08:27:59.794Z,4.50
2023-05-05T08:30:26.380Z,3.17
2023-05-05T08:32:52.983Z,3.08
2023-05-05T08:35:19.577Z,4.72
2023-05-05T08:37:46.224Z,3.17
2023-05-05T08:40:16.089Z,3.75
2023-05-05T08:42:42.940Z,3.33
2023-05-05T08:45:10.794Z,2.90
2023-05-05T08:47:38.790Z,3.88
2023-05-05T08:50:06.181Z,3.10
2023-05-05T08:52:40.200Z,3.63
2023-05-05T08:55:14.947Z,6.30
2023-05-05T08:57:50.455Z,4.43
2023-05-05T09:00:19.040Z,4.40
2023-05-05T09:02:46.716Z,2.77
2023-05-05T09:05:13.418Z,2.20
2023-05-05T09:07:44.045Z,2.15
2023-05-05T09:10:12.010Z,1.95
2023-05-05T09:12:42.118Z,3.58
2023-05-05T09:15:10.714Z,4.10
2023-05-05T09:17:38.406Z,5.57
2023-05-05T09:20:09.777Z,2.28
2023-05-05T09:22:47.312Z,2.28
2023-05-05T09:25:18.334Z,2.33
2023-05-05T09:27:47.251Z,3.57
2023-05-05T09:30:23.952Z,4.78
2023-05-05T09:32:53.412Z,4.25
2023-05-05T09:35:23.182Z,4.20
2023-05-05T09:37:53.393Z,3.28
2023-05-05T09:40:21.299Z,2.97
2023-05-05T09:42:48.240Z,4.30
2023-05-05T09:45:17.657Z,3.58
2023-05-05T09:47:47.251Z,3.42
2023-05-05T09:50:16.226Z,3.53
2023-05-05T09:52:43.328Z,3.13
2023-05-05T09:55:18.656Z,3.92
2023-05-05T09:57:47.441Z,6.55
2023-05-05T10:00:14.733Z,5.80
2023-05-05T10:02:41.940Z,6.78
2023-05-05T10:05:11.645Z,5.50
2023-05-05T10:07:40.227Z,7.47
2023-05-05T10:10:17.635Z,6.82
2023-05-05T10:12:49.332Z,7.65
2023-05-05T10:15:16.752Z,4.80
2023-05-05T10:18:02.771Z,4.00
2023-05-05T10:20:33.541Z,2.72
2023-05-05T10:23:04.825Z,6.63
2023-05-05T10:25:38.506Z,9.82
2023-05-05T10:28:09.698Z,11.70
2023-05-05T10:30:43.070Z,10.90
2023-05-05T10:33:30.128Z,8.82
2023-05-05T10:36:02.011Z,7.03
2023-05-05T10:38:31.995Z,7.53
2023-05-05T10:41:00.737Z,3.55
2023-05-05T10:43:28.485Z,3.67
2023-05-05T10:45:55.728Z,3.13
2023-05-05T10:48:34.543Z,2.28
2023-05-05T10:51:39.529Z,7.22
2023-05-05T10:54:41.674Z,5.57
2023-05-05T10:57:10.978Z,2.80
2023-05-05T10:59:37.530Z,3.67
2023-05-05T11:02:20.619Z,4.72
2023-05-05T11:05:14.964Z,4.32
2023-05-05T11:07:42.961Z,2.53
2023-05-05T11:10:14.664Z,3.00
2023-05-05T11:13:01.905Z,3.65
2023-05-05T11:15:31.647Z,3.25
2023-05-05T11:18:03.200Z,2.58
2023-05-05T11:20:40.501Z,4.28
2023-05-05T11:23:06.990Z,3.60
2023-05-05T11:25:37.232Z,4.63
2023-05-05T11:28:12.846Z,2.80
2023-05-05T11:31:02.618Z,2.45
2023-05-05T11:33:31.194Z,2.92
2023-05-05T11:36:06.677Z,3.33
2023-05-05T11:38:41.585Z,6.30
2023-05-05T11:41:17.882Z,6.75
2023-05-05T11:43:44.556Z,3.90
2023-05-05T11:46:16.914Z,2.35
2023-05-05T11:48:47.770Z,3.53
2023-05-05T11:51:16.328Z,4.57
2023-05-05T11:53:47.335Z,4.55
2023-05-05T11:56:22.289Z,4.32
2023-05-05T11:58:49.674Z,5.80
2023-05-05T12:01:16.520Z,3.90
2023-05-05T12:03:45.472Z,5.25
2023-05-05T12:06:13.303Z,4.57
2023-05-05T12:08:41.607Z,4.07
2023-05-05T12:11:10.768Z,4.63
2023-05-05T12:13:37.666Z,4.47
2023-05-05T12:16:15.000Z,4.15
2023-05-05T12:18:42.201Z,5.68
2023-05-05T12:21:19.431Z,5.75
2023-05-05T12:23:46.720Z,5.07
2023-05-05T12:26:39.517Z,7.57
2023-05-05T12:29:06.348Z,2.65
2023-05-05T12:31:36.405Z,2.58
2023-05-05T12:34:04.308Z,5.53
2023-05-05T12:36:31.149Z,3.17
2023-05-05T12:38:58.175Z,4.63
2023-05-05T12:41:24.783Z,3.25
2023-05-05T12:43:58.408Z,3.97
2023-05-05T12:46:26.461Z,6.53
2023-05-05T12:49:01.458Z,6.18
2023-05-05T12:51:28.271Z,8.17
2023-05-05T12:54:11.504Z,4.22
2023-05-05T12:56:42.523Z,3.15
2023-05-05T12:59:10.976Z,3.08
2023-05-05T13:01:51.602Z,5.47
2023-05-05T13:04:19.702Z,3.77
2023-05-05T13:06:48.404Z,3.58
2023-05-05T13:09:34.045Z,5.00
2023-05-05T13:12:02.821Z,4.72
2023-05-05T13:14:30.843Z,4.63
2023-05-05T13:16:57.647Z,3.30
2023-05-05T13:19:25.089Z,4.68
2023-05-05T13:21:52.754Z,4.95
2023-05-05T13:24:31.206Z,3.08
2023-05-05T13:27:05.064Z,3.22
2023-05-05T13:29:32.517Z,5.97
2023-05-05T13:31:59.275Z,4.82
2023-05-05T13:34:25.916Z,4.18
2023-05-05T13:36:52.857Z,3.80
2023-05-05T13:39:19.616Z,5.15
2023-05-05T13:41:46.196Z,6.40
2023-05-05T13:44:13.836Z,5.45
2023-05-05T13:46:42.423Z,5.68
2023-05-05T13:49:19.627Z,4.55
2023-05-05T13:51:47.230Z,4.10
2023-05-05T13:54:15.500Z,3.43
2023-05-05T13:56:42.531Z,4.63
2023-05-05T13:59:09.201Z,4.47
2023-05-05T14:01:35.798Z,5.15
2023-05-05T14:04:05.119Z,3.75
2023-05-05T14:06:32.772Z,2.80
2023-05-05T14:08:59.458Z,5.40
2023-05-05T14:11:26.141Z,3.00
2023-05-05T14:13:52.815Z,3.33
2023-05-05T14:16:19.549Z,4.47
2023-05-05T14:19:00.699Z,3.17
2023-05-05T14:21:27.626Z,3.72
2023-05-05T14:23:54.348Z,3.13
2023-05-05T14:26:20.938Z,2.58
2023-05-05T14:28:49.726Z,5.90
2023-05-05T14:31:17.693Z,3.30
2023-05-05T14:33:44.180Z,3.60
2023-05-05T14:36:10.809Z,2.00
2023-05-05T14:38:37.359Z,3.90
2023-05-05T14:41:04.092Z,1.63
2023-05-05T14:43:30.592Z,2.63
2023-05-05T14:45:59.097Z,3.03
2023-05-05T14:48:25.818Z,2.08
2023-05-05T14:50:52.279Z,1.88
2023-05-05T14:53:21.480Z,1.55
2023-05-05T14:55:48.044Z,2.03
2023-05-05T14:58:14.742Z,1.92
2023-05-05T15:00:41.509Z,1.70
2023-05-05T15:03:08.120Z,2.85
2023-05-05T15:05:35.294Z,5.45
2023-05-05T15:08:02.195Z,4.30
2023-05-05T15:10:28.794Z,2.95
2023-05-05T15:12:55.660Z,5.90
2023-05-05T15:15:22.378Z,2.25
2023-05-05T15:17:48.996Z,3.58
2023-05-05T15:20:15.554Z,3.57
2023-05-05T15:22:41.992Z,1.77
2023-05-05T15:25:12.221Z,2.88
2023-05-05T15:27:40.178Z,2.60
2023-05-05T15:30:08.539Z,1.85
2023-05-05T15:32:35.337Z,2.40
2023-05-05T15:35:02.008Z,5.07
2023-05-05T15:37:28.979Z,2.60
2023-05-05T15:39:56.106Z,3.03
2023-05-05T15:42:22.680Z,3.20
2023-05-05T15:44:49.267Z,2.90
2023-05-05T15:47:15.997Z,4.47
2023-05-05T15:49:42.647Z,1.58
2023-05-05T15:52:09.166Z,3.83
2023-05-05T15:54:35.906Z,2.22
2023-05-05T15:57:03.194Z,2.37
2023-05-05T15:59:29.916Z,2.05
2023-05-05T16:01:56.370Z,1.48
2023-05-05T16:04:22.789Z,3.13
2023-05-05T16:06:49.290Z,2.40
2023-05-05T16:09:15.871Z,1.60
2023-05-05T16:11:42.864Z,1.48
2023-05-05T16:14:09.591Z,2.03
2023-05-05T16:16:36.225Z,2.63
2023-05-05T16:19:02.884Z,1.80
2023-05-05T16:21:29.537Z,1.30
2023-05-05T16:23:56.215Z,2.35
2023-05-05T16:26:23.051Z,1.00
2023-05-05T16:28:49.610Z,1.23
2023-05-05T16:31:16.198Z,1.70
2023-05-05T16:33:43.725Z,3.03
2023-05-05T16:36:12.024Z,2.35
2023-05-05T16:38:39.653Z,1.20
2023-05-05T16:41:08.966Z,1.77
2023-05-05T16:43:38.609Z,1.70
2023-05-05T16:46:06.548Z,1.40
2023-05-05T16:48:33.361Z,0.90
2023-05-05T16:50:59.935Z,1.60
2023-05-05T16:53:26.497Z,1.00
2023-05-05T16:55:53.609Z,1.20
2023-05-05T16:58:22.478Z,1.17
2023-05-05T17:00:52.576Z,4.25
2023-05-05T17:03:20.337Z,2.45
2023-05-05T17:05:50.023Z,0.63
2023-05-05T17:08:17.195Z,1.02
2023-05-05T17:10:45.512Z,1.43
2023-05-05T17:13:13.859Z,2.25
2023-05-05T17:15:41.454Z,1.60
2023-05-05T17:18:08.865Z,0.70
2023-05-05T17:20:36.372Z,0.80
2023-05-05T17:23:12.763Z,0.67
2023-05-05T17:25:40.064Z,2.80
2023-05-05T17:28:07.463Z,1.50
2023-05-05T17:30:34.466Z,1.55
2023-05-05T17:33:01.261Z,3.85
2023-05-05T17:35:27.794Z,0.73
2023-05-05T17:37:54.411Z,0.77
2023-05-05T17:40:21.498Z,1.98
2023-05-05T17:42:48.135Z,0.95
2023-05-05T17:45:14.965Z,1.70
2023-05-05T17:47:41.564Z,0.70
2023-05-05T17:50:11.039Z,0.82
2023-05-05T17:52:38.042Z,0.85
2023-05-05T17:55:04.781Z,0.90
2023-05-05T17:57:31.215Z,0.75
2023-05-05T17:59:57.786Z,1.03
2023-05-05T18:02:24.425Z,1.00
2023-05-05T18:04:51.044Z,1.27
2023-05-05T18:07:17.517Z,1.10
2023-05-05T18:09:44.003Z,0.57
2023-05-05T18:12:10.685Z,1.50
2023-05-05T18:14:37.257Z,0.70
2023-05-05T18:17:04.730Z,0.77
2023-05-05T18:19:32.496Z,1.33
2023-05-05T18:21:59.165Z,1.67
2023-05-05T18:24:26.233Z,2.03
2023-05-05T18:26:53.190Z,0.90
2023-05-05T18:29:24.112Z,0.75
2023-05-05T18:31:54.811Z,1.30
2023-05-05T18:34:21.969Z,1.15
2023-05-05T18:36:50.798Z,1.17
2023-05-05T18:39:17.916Z,1.40
2023-05-05T18:41:44.598Z,0.80
2023-05-05T18:44:11.225Z,1.38
2023-05-05T18:46:37.817Z,1.17
2023-05-05T18:49:04.492Z,1.20
2023-05-05T18:51:32.185Z,1.45
2023-05-05T18:53:59.020Z,0.80
2023-05-05T18:56:25.566Z,0.88
2023-05-05T18:58:52.279Z,1.05
2023-05-05T19:01:18.870Z,2.60
2023-05-05T19:03:49.310Z,1.23
2023-05-05T19:06:16.253Z,1.52
2023-05-05T19:08:43.541Z,1.20
2023-05-05T19:11:10.086Z,1.70
2023-05-05T19:16:03.313Z,1.73
2023-05-05T19:18:31.955Z,1.50
2023-05-05T19:20:58.546Z,1.42
2023-05-05T19:23:25.107Z,1.50
2023-05-05T19:25:52.860Z,1.43
2023-05-05T19:28:19.736Z,1.02
2023-05-05T19:30:49.276Z,3.63
2023-05-05T19:33:19.142Z,3.95
2023-05-05T19:35:45.796Z,1.50
2023-05-05T19:38:12.719Z,1.47
2023-05-05T19:40:41.664Z,1.80
2023-05-05T19:43:08.545Z,1.20
2023-05-05T19:45:35.230Z,2.70
2023-05-05T19:48:02.439Z,2.13
2023-05-05T19:50:30.428Z,2.00
2023-05-05T19:52:57.749Z,2.67
2023-05-05T19:55:39.135Z,1.90
2023-05-05T19:58:06.101Z,2.60
2023-05-05T20:00:32.838Z,2.00
2023-05-05T20:03:02.193Z,2.23
2023-05-05T20:05:28.763Z,1.85
2023-05-05T20:07:55.490Z,2.17
2023-05-05T20:10:22.193Z,2.60
2023-05-05T20:12:49.529Z,2.13
2023-05-05T20:15:20.561Z,2.70
2023-05-05T20:17:48.246Z,2.35
2023-05-05T20:20:17.456Z,2.08
2023-05-05T20:22:45.606Z,2.15
2023-05-05T20:25:12.569Z,2.70
2023-05-05T20:27:39.437Z,3.37
2023-05-05T20:30:10.061Z,2.33
2023-05-05T20:32:37.616Z,2.88
2023-05-05T20:37:47.183Z,3.85
2023-05-05T20:42:54.172Z,3.10
2023-05-05T20:45:20.828Z,2.47
2023-05-05T20:47:47.411Z,2.70
2023-05-05T20:50:14.291Z,2.90
2023-05-05T20:52:40.702Z,2.27
2023-05-05T20:55:07.690Z,2.60
2023-05-05T20:57:34.182Z,2.72
2023-05-05T21:00:01.160Z,3.47
2023-05-05T21:02:28.258Z,2.47
2023-05-05T21:04:54.871Z,2.63
2023-05-05T21:07:21.352Z,3.08
2023-05-05T21:09:47.870Z,3.60
2023-05-05T21:12:14.420Z,3.55
2023-05-05T21:14:45.228Z,2.30
2023-05-05T21:17:11.679Z,2.33
2023-05-05T21:19:39.542Z,5.05
2023-05-05T21:22:05.983Z,2.65
2023-05-05T21:24:32.528Z,2.28
2023-05-05T21:26:59.016Z,3.03
2023-05-05T21:32:11.172Z,5.10
2023-05-05T21:34:39.184Z,2.95
2023-05-05T21:37:06.144Z,2.63
2023-05-05T21:39:33.266Z,2.35
2023-05-05T21:42:00.810Z,2.50
2023-05-05T21:44:28.320Z,2.17
2023-05-05T21:46:55.672Z,3.05
2023-05-05T21:49:22.453Z,4.00
2023-05-05T21:51:48.977Z,2.75
2023-05-05T21:54:15.883Z,2.80
2023-05-05T21:56:42.465Z,2.50
2023-05-05T21:59:08.932Z,3.67
2023-05-05T22:01:35.504Z,2.65
2023-05-05T22:04:02.606Z,3.20
2023-05-05T22:06:29.261Z,2.80
2023-05-05T22:08:58.505Z,3.25
2023-05-05T22:11:25.103Z,3.00
2023-05-05T22:13:51.975Z,2.97
2023-05-05T22:16:18.952Z,3.70
2023-05-05T22:18:46.180Z,3.33
2023-05-05T22:21:12.788Z,3.30
2023-05-05T22:23:41.821Z,2.53
2023-05-05T22:26:09.538Z,2.83
2023-05-05T22:28:36.553Z,3.20
2023-05-05T22:31:03.130Z,4.13
2023-05-05T22:33:29.657Z,3.63
2023-05-05T22:35:56.531Z,3.47
2023-05-05T22:38:23.065Z,4.72
2023-05-05T22:40:49.688Z,4.07
2023-05-05T22:43:16.295Z,3.23
2023-05-05T22:45:43.601Z,2.42
2023-05-05T22:48:10.349Z,3.03
2023-05-05T22:50:37.698Z,2.92
2023-05-05T22:53:04.549Z,2.55
2023-05-05T22:55:31.139Z,3.20
2023-05-05T22:57:57.764Z,4.10
2023-05-05T23:00:24.258Z,2.63
2023-05-05T23:02:51.053Z,2.58
2023-05-05T23:05:17.594Z,4.63
2023-05-05T23:07:44.114Z,2.77
2023-05-05T23:10:10.754Z,4.18
2023-05-05T23:12:37.312Z,3.50
2023-05-05T23:15:04.382Z,2.33
2023-05-05T23:17:31.258Z,3.17
2023-05-05T23:19:57.832Z,5.73
2023-05-05T23:22:24.313Z,2.83
2023-05-05T23:24:51.154Z,3.25
2023-05-05T23:27:17.754Z,5.13
2023-05-05T23:29:44.240Z,6.50
2023-05-05T23:32:10.702Z,5.40
2023-05-05T23:34:37.250Z,4.32
2023-05-05T23:37:06.076Z,3.63
2023-05-05T23:39:35.653Z,4.30
2023-05-05T23:42:02.083Z,4.03
2023-05-05T23:44:28.559Z,4.50
2023-05-05T23:46:55.073Z,7.28
2023-05-05T23:49:21.708Z,5.85
2023-05-05T23:51:48.199Z,5.55
2023-05-05T23:54:14.622Z,8.13
2023-05-05T23:56:42.587Z,6.23
2023-05-05T23:59:09.056Z,4.97
